Latest Coastal Weather Observations for Darwin Harbour

IDD60701

Issued at 8:41 am CST Monday 20 February 2017 (issued every 10 minutes, with the page automatically refreshed every 10 minutes)

About coastal observations | Map of coastal stations | Coastal observations for NT | Marine services | Other Formats
Station Details ID: 014072 Name: DARWIN NTC AWS Lat: -12.47 Lon: 130.85 Height: 0.0 m
Data from the previous 72 hours. | See also: Recent months for locations in Northern Territory
Date/Time
CST
Temp
°C
Wind Pressure Rain since
9am
mm
Weather Cloud Vis
km
Sea
Height
m
Swell
Dir  Spd
kts
Gust
kts
hPa Trend Height
m
Period
s
Dir
20/08:30am - SE 1 3 1008.8 - - - - - - - - -
20/08:00am - WNW 2 4 1008.7 - - - - - - - - -
20/07:30am - N 3 5 1008.2 - - - - - - - - -
20/07:00am - NW 2 3 1007.8 - - - - - - - - -
20/06:30am - E 2 4 1007.5 - - - - - - - - -
20/06:00am - ENE 2 4 1007.3 - - - - - - - - -
20/05:30am - ENE 2 5 1007.2 - - - - - - - - -
20/05:00am - SSE 2 3 1007.2 - - - - - - - - -
20/04:30am - SW 4 6 1007.3 - - - - - - - - -
20/04:00am - SW 7 9 1006.8 - - - - - - - - -
20/03:30am - WSW 4 5 1006.5 - - - - - - - - -
20/03:00am - W 7 11 1006.7 - - - - - - - - -
20/02:30am - SSW 12 17 1006.8 - - - - - - - - -
20/02:12am - S 21 42 1007.0 - - - - - - - - -
20/02:09am - SSE 23 42 1007.4 - - - - - - - - -
20/02:08am - SSE 22 42 1007.3 - - - - - - - - -
20/02:07am - SSE 21 42 1007.2 - - - - - - - - -
20/02:05am - SSE 20 31 1007.5 - - - - - - - - -
20/02:00am - SE 21 30 1007.1 - - - - - - - - -
20/01:54am - ESE 16 30 1007.0 - - - - - - - - -
20/01:45am - SE 13 21 1007.4 - - - - - - - - -
20/01:30am - WSW 8 10 1007.1 - - - - - - - - -
20/01:00am - W 8 11 1007.1 - - - - - - - - -
20/12:30am - W 7 9 1007.5 - - - - - - - - -
20/12:00am - WSW 8 12 1007.6 - - - - - - - - -
 
Date/Time
CST
Temp
°C
Wind Pressure Rain since
9am
mm
Weather Cloud Vis
km
Sea
Height
m
Swell
Dir  Spd
kts
Gust
kts
hPa Trend Height
m
Period
s
Dir
19/11:30pm - WSW 8 10 1007.6 - - - - - - - - -
19/11:00pm - WSW 9 12 1007.6 - - - - - - - - -
19/10:30pm - WSW 9 12 1007.8 - - - - - - - - -
19/10:00pm - WSW 10 13 1007.5 - - - - - - - - -
19/09:30pm - WSW 10 14 1007.4 - - - - - - - - -
19/09:00pm - WSW 10 12 1006.8 - - - - - - - - -
19/08:30pm - WSW 10 14 1006.4 - - - - - - - - -
19/08:00pm - WSW 9 13 1006.2 - - - - - - - - -
19/07:30pm - WSW 11 15 1005.9 - - - - - - - - -
19/07:00pm - WSW 13 16 1005.7 - - - - - - - - -
19/06:30pm - WSW 13 17 1005.1 - - - - - - - - -
19/06:00pm - WSW 11 13 1004.7 - - - - - - - - -
19/05:30pm - W 11 14 1004.6 - - - - - - - - -
19/05:00pm - W 3 4 1004.6 - - - - - - - - -
19/04:30pm - WNW 1 3 1005.0 - - - - - - - - -
19/04:00pm - S 2 13 1005.8 - - - - - - - - -
19/03:30pm - W 9 12 1005.7 - - - - - - - - -
19/03:00pm - W 12 16 1005.1 - - - - - - - - -
19/02:30pm - W 11 17 1005.3 - - - - - - - - -
19/02:00pm - W 12 17 1005.8 - - - - - - - - -
19/01:30pm - W 13 18 1006.3 - - - - - - - - -
19/01:00pm - WNW 9 16 1006.9 - - - - - - - - -
19/12:30pm - WNW 9 17 1007.6 - - - - - - - - -
19/12:00pm - W 9 17 1008.1 - - - - - - - - -
19/11:30am - W 10 17 1008.5 - - - - - - - - -
19/11:00am - WNW 11 20 1008.5 - - - - - - - - -
19/10:30am - WNW 10 18 1008.6 - - - - - - - - -
19/10:00am - W 9 14 1008.7 - - - - - - - - -
19/09:30am - W 9 13 1008.6 - - - - - - - - -
19/09:00am - W 7 11 1008.3 - - - - - - - - -
19/08:30am - W 8 11 1008.0 - - - - - - - - -
19/08:00am - W 10 13 1008.0 - - - - - - - - -
19/07:30am - WNW 11 13 1007.4 - - - - - - - - -
19/07:00am - WNW 7 11 1007.3 - - - - - - - - -
19/06:30am - WNW 6 8 1007.4 - - - - - - - - -
19/06:00am - W 4 6 1007.3 - - - - - - - - -
19/05:30am - W 5 8 1007.3 - - - - - - - - -
19/05:00am - W 3 5 1007.2 - - - - - - - - -
19/04:30am - WNW 8 10 1006.6 - - - - - - - - -
19/04:00am - WNW 7 9 1006.3 - - - - - - - - -
19/03:30am - WNW 7 10 1006.8 - - - - - - - - -
19/03:00am - WNW 9 12 1007.1 - - - - - - - - -
19/02:30am - WNW 9 12 1007.1 - - - - - - - - -
19/02:00am - W 10 13 1007.4 - - - - - - - - -
19/01:30am - WNW 11 15 1007.5 - - - - - - - - -
19/01:00am - W 11 15 1007.8 - - - - - - - - -
19/12:30am - W 10 15 1008.4 - - - - - - - - -
19/12:00am - W 11 14 1008.6 - - - - - - - - -
 
Date/Time
CST
Temp
°C
Wind Pressure Rain since
9am
mm
Weather Cloud Vis
km
Sea
Height
m
Swell
Dir  Spd
kts
Gust
kts
hPa Trend Height
m
Period
s
Dir
18/11:30pm - W 10 14 1008.9 - - - - - - - - -
18/11:00pm - W 10 13 1008.9 - - - - - - - - -
18/10:30pm - WNW 10 12 1008.8 - - - - - - - - -
18/10:00pm - W 9 12 1008.6 - - - - - - - - -
18/09:30pm - W 10 13 1008.1 - - - - - - - - -
18/09:00pm - W 10 15 1007.8 - - - - - - - - -
18/08:30pm - W 11 15 1007.5 - - - - - - - - -
18/08:00pm - W 12 16 1006.7 - - - - - - - - -
18/07:30pm - W 13 18 1006.8 - - - - - - - - -
18/07:00pm - W 13 17 1006.8 - - - - - - - - -
18/06:30pm - W 14 19 1006.7 - - - - - - - - -
18/06:00pm - W 15 19 1006.2 - - - - - - - - -
18/05:30pm - W 14 19 1006.2 - - - - - - - - -
18/05:00pm - W 13 17 1006.2 - - - - - - - - -
18/04:30pm - W 13 17 1006.0 - - - - - - - - -
18/04:00pm - W 13 16 1006.5 - - - - - - - - -
18/03:30pm - W 13 18 1006.5 - - - - - - - - -
18/03:00pm - W 11 16 1006.6 - - - - - - - - -
18/02:30pm - W 12 16 1006.6 - - - - - - - - -
18/02:00pm - WNW 13 16 1006.9 - - - - - - - - -
18/01:30pm - WNW 13 17 1007.2 - - - - - - - - -
18/01:00pm - W 12 16 1007.8 - - - - - - - - -
18/12:30pm - W 14 18 1008.2 - - - - - - - - -
18/12:00pm - W 13 17 1008.6 - - - - - - - - -
18/11:30am - W 12 17 1009.2 - - - - - - - - -
18/11:00am - W 12 16 1009.7 - - - - - - - - -
18/10:30am - W 13 17 1009.7 - - - - - - - - -
18/10:00am - W 12 16 1009.9 - - - - - - - - -
18/09:30am - W 10 13 1009.5 - - - - - - - - -
18/09:00am - W 10 14 1009.7 - - - - - - - - -
18/08:30am - W 8 12 1009.7 - - - - - - - - -
18/08:00am - W 8 11 1009.4 - - - - - - - - -
18/07:30am - WNW 9 12 1008.8 - - - - - - - - -
18/07:00am - W 9 13 1008.7 - - - - - - - - -
18/06:30am - W 11 14 1008.4 - - - - - - - - -
18/06:00am - W 11 15 1008.2 - - - - - - - - -
18/05:30am - W 11 15 1008.1 - - - - - - - - -
18/05:00am - WNW 11 15 1008.1 - - - - - - - - -
18/04:30am - WNW 11 14 1008.1 - - - - - - - - -
18/04:00am - W 8 13 1008.3 - - - - - - - - -
18/03:30am - W 6 9 1008.4 - - - - - - - - -
18/03:00am - W 8 11 1008.5 - - - - - - - - -
18/02:30am - W 9 13 1008.3 - - - - - - - - -
18/02:00am - W 8 11 1008.5 - - - - - - - - -
18/01:30am - W 8 10 1008.9 - - - - - - - - -
18/01:00am - W 8 11 1009.2 - - - - - - - - -
18/12:30am - W 8 9 1009.7 - - - - - - - - -
18/12:00am - WSW 8 10 1010.2 - - - - - - - - -
 
Date/Time
CST
Temp
°C
Wind Pressure Rain since
9am
mm
Weather Cloud Vis
km
Sea
Height
m
Swell
Dir  Spd
kts
Gust
kts
hPa Trend Height
m
Period
s
Dir
17/11:30pm - W 9 12 1010.5 - - - - - - - - -
17/11:00pm - WSW 8 10 1010.7 - - - - - - - - -
17/10:30pm - WSW 8 10 1010.5 - - - - - - - - -
17/10:00pm - WSW 9 11 1009.6 - - - - - - - - -
17/09:30pm - W 9 11 1009.2 - - - - - - - - -
17/09:00pm - W 9 12 1009.2 - - - - - - - - -
17/08:30pm - W 11 14 1009.0 - - - - - - - - -
17/08:00pm - W 11 15 1008.9 - - - - - - - - -
17/07:30pm - W 11 15 1008.6 - - - - - - - - -
17/07:00pm - W 12 16 1008.1 - - - - - - - - -
17/06:30pm - W 13 16 1007.6 - - - - - - - - -
17/06:00pm - W 12 17 1007.1 - - - - - - - - -
17/05:30pm - W 12 16 1006.9 - - - - - - - - -
17/05:00pm - W 12 16 1007.0 - - - - - - - - -
17/04:30pm - W 11 17 1007.4 - - - - - - - - -
17/04:00pm - W 11 17 1007.7 - - - - - - - - -
17/03:30pm - W 11 16 1007.9 - - - - - - - - -
17/03:00pm - W 12 17 1008.0 - - - - - - - - -
17/02:30pm - W 12 17 1008.4 - - - - - - - - -
17/02:00pm - W 12 15 1008.8 - - - - - - - - -
17/01:30pm - W 10 15 1009.2 - - - - - - - - -
17/01:00pm - W 11 15 1009.5 - - - - - - - - -
17/12:30pm - W 11 14 1009.8 - - - - - - - - -
17/12:00pm - W 11 15 1010.1 - - - - - - - - -
17/11:30am - W 10 14 1010.3 - - - - - - - - -
17/11:00am - W 12 15 1010.3 - - - - - - - - -
17/10:30am - W 12 17 1010.4 - - - - - - - - -
17/10:00am - W 12 16 1010.4 - - - - - - - - -
17/09:30am - W 10 16 1010.3 - - - - - - - - -
17/09:00am - W 12 16 1010.1 - - - - - - - - -

Other Formats:

Comma delimited format used in spreadsheet applications
http://www.bom.gov.au/fwo/IDD60701/IDD60701.95122.axf

JavaScript Object Notation format (JSON) in row-major order
http://www.bom.gov.au/fwo/IDD60701/IDD60701.95122.json